Time;durP1;ratioP1;P1;durP2;ratioP2;P2;SDS_P1;SDS_P2;PMS_P1;PMS_P2;Temp;Humidity;BMP_temperature;BMP_pressure;BME280_temperature;BME280_humidity;BME280_pressure;Samples;Min_cycle;Max_cycle;Signal;HPM_P1;HPM_P2
2021/05/18 00:11:57;;;;;;;33.20;27.98;;;;;;;13.90;100.00;98488.46;1700835;82;20969;-61
2021/05/18 00:14:25;;;;;;;30.92;27.22;;;;;;;13.88;100.00;98480.97;1691883;82;21748;-60
2021/05/18 00:16:54;;;;;;;31.42;26.75;;;;;;;13.88;100.00;98478.26;1699593;82;20894;-60
2021/05/18 00:19:21;;;;;;;33.78;26.77;;;;;;;13.86;100.00;98480.25;1693268;82;20937;-59
2021/05/18 00:21:48;;;;;;;32.50;27.67;;;;;;;13.84;100.00;98479.50;1693125;82;21506;-60
2021/05/18 00:24:15;;;;;;;34.92;28.83;;;;;;;13.83;100.00;98481.84;1693432;82;20993;-59
2021/05/18 00:26:42;;;;;;;34.15;29.00;;;;;;;13.80;100.00;98476.70;1691449;82;21080;-62
2021/05/18 00:29:09;;;;;;;34.98;28.98;;;;;;;13.78;100.00;98470.53;1694579;82;20929;-61
2021/05/18 00:31:36;;;;;;;36.23;30.88;;;;;;;13.76;100.00;98467.10;1693063;82;20925;-61
2021/05/18 00:34:04;;;;;;;35.63;30.48;;;;;;;13.74;100.00;98458.23;1692304;82;20956;-60
2021/05/18 00:36:31;;;;;;;35.73;29.37;;;;;;;13.72;100.00;98452.09;1692708;82;21426;-59
2021/05/18 00:38:57;;;;;;;36.53;27.98;;;;;;;13.71;100.00;98455.79;1693020;82;21054;-60
2021/05/18 00:41:24;;;;;;;36.63;29.12;;;;;;;13.68;100.00;98459.60;1694349;82;20922;-58
2021/05/18 00:43:51;;;;;;;39.48;28.50;;;;;;;13.66;100.00;98458.02;1692641;82;21092;-57
2021/05/18 00:46:18;;;;;;;33.15;25.68;;;;;;;13.65;100.00;98464.44;1684386;83;20965;-57
2021/05/18 00:48:56;;;;;;;31.73;25.32;;;;;;;13.60;100.00;98468.38;1692302;82;20913;-58
2021/05/18 00:51:14;;;;;;;33.38;24.47;;;;;;;13.56;100.00;98466.91;1690759;82;21043;-60
2021/05/18 00:53:42;;;;;;;29.35;24.35;;;;;;;13.51;100.00;98458.30;1693156;82;21688;-57
2021/05/18 00:59:00;;;;;;;30.27;22.48;;;;;;;13.42;100.00;98453.64;1675709;82;21056;-59
2021/05/18 01:01:29;;;;;;;29.55;22.87;;;;;;;13.38;100.00;98464.88;1692494;82;21537;-58
2021/05/18 01:03:56;;;;;;;24.57;21.15;;;;;;;13.34;100.00;98466.47;1701936;82;21708;-58
2021/05/18 01:08:55;;;;;;;27.10;22.82;;;;;;;13.27;100.00;98460.34;1694026;82;20938;-57
2021/05/18 01:11:25;;;;;;;27.32;21.05;;;;;;;13.23;100.00;98451.61;1686912;83;20969;-56
2021/05/18 01:13:59;;;;;;;33.93;23.53;;;;;;;13.21;100.00;98458.08;1687439;83;20941;-59
2021/05/18 01:16:31;;;;;;;29.95;23.40;;;;;;;13.18;100.00;98459.70;1686460;83;20949;-60
2021/05/18 01:18:58;;;;;;;29.18;22.25;;;;;;;13.16;100.00;98452.21;1687919;83;20910;-59
2021/05/18 01:21:26;;;;;;;29.02;23.67;;;;;;;13.14;100.00;98454.16;1661355;83;21534;-59
2021/05/18 01:23:53;;;;;;;30.02;22.90;;;;;;;13.11;100.00;98458.86;1686824;83;20982;-59
2021/05/18 01:26:21;;;;;;;34.55;25.15;;;;;;;13.08;100.00;98452.33;1686101;83;20981;-58
2021/05/18 01:28:48;;;;;;;33.42;23.77;;;;;;;13.04;100.00;98449.48;1660207;83;21088;-58
2021/05/18 01:31:21;;;;;;;35.55;24.35;;;;;;;13.01;100.00;98442.99;1687217;83;21005;-59
2021/05/18 01:33:47;;;;;;;33.83;25.60;;;;;;;12.97;100.00;98436.10;1686166;83;21040;-57
2021/05/18 01:36:20;;;;;;;35.68;26.80;;;;;;;12.96;100.00;98438.94;1687409;82;20929;-58
2021/05/18 01:38:58;;;;;;;32.75;25.08;;;;;;;12.95;100.00;98434.02;1684198;83;21398;-58
2021/05/18 01:44:05;;;;;;;34.90;26.27;;;;;;;12.93;100.00;98435.97;1695309;82;20917;-60
2021/05/18 01:46:32;;;;;;;34.95;25.25;;;;;;;12.94;100.00;98424.16;1686965;82;20904;-60
2021/05/18 01:49:07;;;;;;;35.35;27.02;;;;;;;12.92;100.00;98426.14;1694069;82;20949;-59
2021/05/18 01:51:39;;;;;;;34.78;27.15;;;;;;;12.91;100.00;98419.52;1685234;82;20945;-60
2021/05/18 01:54:25;;;;;;;37.75;27.65;;;;;;;12.85;100.00;98427.63;1687603;82;21081;-59
2021/05/18 01:57:05;;;;;;;35.08;26.12;;;;;;;12.80;100.00;98427.14;1692289;82;20989;-59
2021/05/18 01:59:23;;;;;;;35.90;26.65;;;;;;;12.75;100.00;98426.16;1683335;83;21013;-59
2021/05/18 02:01:55;;;;;;;33.02;27.20;;;;;;;12.72;100.00;98419.62;1687050;82;20906;-61
2021/05/18 02:04:36;;;;;;;29.90;24.65;;;;;;;12.70;100.00;98426.16;1668715;83;20941;-60
2021/05/18 02:07:14;;;;;;;34.63;26.37;;;;;;;12.69;100.00;98432.56;1689123;83;21535;-59
2021/05/18 02:09:42;;;;;;;32.25;25.05;;;;;;;12.65;100.00;98429.72;1690664;83;21545;-59
2021/05/18 02:12:09;;;;;;;33.83;25.08;;;;;;;12.58;100.00;98430.22;1686222;83;20910;-59
2021/05/18 02:14:39;;;;;;;28.10;23.87;;;;;;;12.57;100.00;98413.63;1691154;83;21427;-60
2021/05/18 02:17:28;;;;;;;32.17;24.72;;;;;;;12.55;100.00;98423.69;1685452;82;20942;-60
2021/05/18 02:25:22;;;;;;;30.12;23.55;;;;;;;12.45;100.00;98428.09;1687837;83;21449;-51
2021/05/18 02:28:00;;;;;;;27.85;22.42;;;;;;;12.43;100.00;98420.61;1687701;82;20983;-51
2021/05/18 02:30:27;;;;;;;26.82;21.82;;;;;;;12.44;100.00;98414.22;1691816;82;20906;-50
2021/05/18 02:32:55;;;;;;;28.00;22.95;;;;;;;12.50;100.00;98419.13;1688379;83;21049;-50
2021/05/18 02:35:25;;;;;;;26.10;22.20;;;;;;;12.52;100.00;98415.84;1686046;83;21027;-49
2021/05/18 02:37:52;;;;;;;27.90;20.65;;;;;;;12.55;100.00;98420.12;1665878;83;21626;-49
2021/05/18 02:40:22;;;;;;;28.27;20.72;;;;;;;12.52;100.00;98415.84;1690780;83;21470;-58
2021/05/18 02:42:50;;;;;;;24.63;21.53;;;;;;;12.53;100.00;98422.95;1688680;83;20932;-59
2021/05/18 02:45:47;;;;;;;27.58;22.77;;;;;;;12.53;100.00;98422.95;1699031;83;22250;-56
2021/05/18 02:50:51;;;;;;;25.37;20.80;;;;;;;12.53;100.00;98436.48;1687356;83;21647;-48
2021/05/18 02:53:20;;;;;;;26.82;22.45;;;;;;;12.53;100.00;98440.53;1687682;83;21533;-55
2021/05/18 02:55:59;;;;;;;31.60;22.77;;;;;;;12.54;100.00;98445.45;1697726;83;20937;-57
2021/05/18 02:58:19;;;;;;;26.80;21.42;;;;;;;12.53;100.00;98447.30;1692147;83;21841;-58
2021/05/18 03:00:46;;;;;;;29.00;20.95;;;;;;;12.52;100.00;98453.70;1687843;83;20954;-58
2021/05/18 03:03:13;;;;;;;27.07;20.37;;;;;;;12.49;100.00;98457.98;1693133;83;20954;-51
2021/05/18 03:05:40;;;;;;;27.75;19.87;;;;;;;12.47;100.00;98455.89;1691043;82;21692;-51
2021/05/18 03:08:11;;;;;;;27.30;20.65;;;;;;;12.45;100.00;98449.73;1685432;82;21604;-50
2021/05/18 03:10:39;;;;;;;27.65;19.73;;;;;;;12.45;100.00;98452.93;1681691;83;21771;-54
2021/05/18 03:13:06;;;;;;;25.32;21.15;;;;;;;12.45;100.00;98442.11;1679996;83;21033;-53
2021/05/18 03:15:33;;;;;;;25.52;20.62;;;;;;;12.44;100.00;98442.61;1679881;82;21045;-53
2021/05/18 03:18:03;;;;;;;24.60;20.00;;;;;;;12.46;100.00;98435.22;1677638;83;21521;-51
2021/05/18 03:20:30;;;;;;;25.23;21.57;;;;;;;12.47;100.00;98427.50;1678987;83;20978;-52
2021/05/18 03:22:56;;;;;;;25.60;19.92;;;;;;;12.49;100.00;98426.88;1678616;83;21047;-51
2021/05/18 03:25:23;;;;;;;28.17;21.05;;;;;;;12.52;100.00;98434.77;1678649;83;21030;-55
2021/05/18 03:27:52;;;;;;;24.57;21.57;;;;;;;12.56;100.00;98440.27;1678948;83;20910;-54
2021/05/18 03:35:45;;;;;;;29.77;22.85;;;;;;;12.62;100.00;98457.00;1680011;83;21141;-50
2021/05/18 03:41:00;;;;;;;27.60;21.55;;;;;;;12.65;100.00;98452.22;1680318;83;20926;-50
2021/05/18 04:04:36;;;;;;;43.50;25.02;;;;;;;12.85;100.00;98462.80;1680012;82;20946;-51
2021/05/18 04:12:44;;;;;;;40.45;25.05;;;;;;;12.86;100.00;98464.52;1687750;83;20937;-50
2021/05/18 04:17:59;;;;;;;48.92;28.02;;;;;;;12.90;100.00;98484.94;1690927;82;20988;-50
2021/05/18 04:20:36;;;;;;;54.77;29.02;;;;;;;12.93;100.00;98488.73;1689513;83;20898;-52
2021/05/18 04:39:27;;;;;;;50.05;29.98;;;;;;;13.06;100.00;98466.98;1685832;82;20965;-50
2021/05/18 04:49:57;;;;;;;49.83;31.07;;;;;;;13.33;100.00;98476.09;1689718;82;21522;-49
2021/05/18 04:52:24;;;;;;;44.30;29.87;;;;;;;13.39;100.00;98474.22;1666093;83;21074;-49
2021/05/18 05:00:34;;;;;;;38.42;28.12;;;;;;;13.55;100.00;98473.32;1690444;82;20914;-49
2021/05/18 05:08:19;;;;;;;38.53;28.50;;;;;;;13.73;100.00;98475.48;1687411;83;21124;-59
2021/05/18 05:15:43;;;;;;;42.03;28.75;;;;;;;13.86;100.00;98460.78;1678216;84;21013;-55
2021/05/18 05:18:13;;;;;;;43.52;29.05;;;;;;;13.93;100.00;98452.98;1646479;84;20973;-53
2021/05/18 05:20:40;;;;;;;47.93;29.95;;;;;;;14.00;100.00;98451.46;1646811;85;21527;-52
2021/05/18 05:23:08;;;;;;;38.63;29.25;;;;;;;14.04;100.00;98450.22;1649860;84;20953;-52
2021/05/18 05:25:34;;;;;;;47.00;30.45;;;;;;;14.14;100.00;98447.59;1680129;82;21036;-62
2021/05/18 05:28:01;;;;;;;38.08;27.70;;;;;;;14.22;100.00;98444.20;1677401;82;21582;-61
2021/05/18 05:30:28;;;;;;;37.30;28.12;;;;;;;14.30;100.00;98439.84;1679450;83;20938;-64
2021/05/18 05:32:55;;;;;;;38.48;28.80;;;;;;;14.38;100.00;98428.32;1679499;82;20998;-64
2021/05/18 05:35:22;;;;;;;37.85;28.02;;;;;;;14.44;100.00;98433.23;1684305;82;20993;-60
2021/05/18 05:37:51;;;;;;;33.67;29.95;;;;;;;14.54;100.00;98434.19;1684911;83;20942;-63
2021/05/18 05:40:18;;;;;;;38.35;29.85;;;;;;;14.63;100.00;98434.71;1683249;82;20942;-62
2021/05/18 05:42:45;;;;;;;42.50;35.23;;;;;;;14.71;100.00;98445.41;1678478;83;20973;-62
2021/05/18 05:45:13;;;;;;;50.17;40.38;;;;;;;14.78;100.00;98453.36;1678217;82;21516;-61
2021/05/18 05:47:39;;;;;;;47.43;40.30;;;;;;;14.85;100.00;98455.88;1677288;83;21030;-60
2021/05/18 05:50:08;;;;;;;55.48;41.20;;;;;;;14.93;100.00;98459.65;1680651;82;21774;-59
2021/05/18 05:52:35;;;;;;;79.62;45.85;;;;;;;15.02;100.00;98449.84;1678963;82;21617;-61
2021/05/18 05:55:02;;;;;;;76.50;46.80;;;;;;;15.10;100.00;98452.70;1679285;82;21056;-67
2021/05/18 05:57:29;;;;;;;60.28;40.65;;;;;;;15.16;100.00;98456.73;1683724;82;21025;-61
2021/05/18 05:59:56;;;;;;;56.70;37.20;;;;;;;15.20;100.00;98455.46;1680905;82;21404;-64
2021/05/18 06:02:23;;;;;;;47.10;33.00;;;;;;;15.24;100.00;98452.84;1680286;82;20930;-62
2021/05/18 06:04:50;;;;;;;45.40;32.25;;;;;;;15.28;100.00;98457.47;1679558;82;21009;-62
2021/05/18 06:07:17;;;;;;;52.93;31.42;;;;;;;15.34;100.00;98450.12;1682919;83;21466;-64
2021/05/18 06:09:47;;;;;;;52.15;30.25;;;;;;;15.39;100.00;98457.36;1689082;82;21666;-64
2021/05/18 06:12:26;;;;;;;45.38;30.37;;;;;;;15.47;100.00;98449.38;1695530;83;21312;-64
2021/05/18 06:34:13;;;;;;;25.77;20.57;;;;;;;15.75;100.00;98436.00;1690224;82;21570;-63
2021/05/18 06:42:07;;;;;;;32.85;25.45;;;;;;;15.92;100.00;98431.20;1686060;81;21588;-62
2021/05/18 06:47:32;;;;;;;42.75;24.32;;;;;;;16.12;100.00;98434.28;1685068;82;21032;-59
2021/05/18 06:54:38;;;;;;;31.90;22.25;;;;;;;16.52;100.00;98420.98;1754328;78;23758;-60
2021/05/18 06:57:07;;;;;;;35.43;21.50;;;;;;;16.58;100.00;98424.47;1704083;82;20948;-60
2021/05/18 07:09:33;;;;;;;19.30;17.20;;;;;;;16.91;100.00;98420.88;1744621;79;22651;-62
2021/05/18 07:12:00;;;;;;;20.50;18.40;;;;;;;16.86;100.00;98422.68;1728539;80;21688;-61
2021/05/18 07:14:28;;;;;;;19.35;17.25;;;;;;;16.89;100.00;98424.27;1732667;81;21055;-63
2021/05/18 07:16:56;;;;;;;26.93;18.15;;;;;;;16.91;100.00;98422.23;1727789;82;21009;-62
2021/05/18 07:19:25;;;;;;;17.15;15.45;;;;;;;16.95;99.86;98427.23;1725410;80;20925;-60
2021/05/18 07:21:52;;;;;;;16.75;14.55;;;;;;;17.03;99.29;98427.84;1729463;82;20969;-62
2021/05/18 07:24:23;;;;;;;19.65;14.00;;;;;;;17.04;98.87;98425.45;1728388;82;21529;-57
2021/05/18 07:26:49;;;;;;;15.15;13.70;;;;;;;17.03;98.21;98438.22;1722284;80;21013;-59
2021/05/18 07:29:17;;;;;;;17.25;14.07;;;;;;;17.01;97.71;98429.86;1733329;82;20930;-62
2021/05/18 07:31:44;;;;;;;14.85;13.32;;;;;;;17.01;97.64;98431.23;1727224;80;20941;-62
2021/05/18 07:34:11;;;;;;;15.85;14.25;;;;;;;16.98;97.60;98435.09;1732292;82;20969;-59
2021/05/18 07:36:38;;;;;;;18.65;16.32;;;;;;;16.95;97.87;98437.28;1731432;80;20937;-60
2021/05/18 07:39:06;;;;;;;17.57;15.72;;;;;;;16.94;98.13;98438.29;1730869;82;21076;-59
2021/05/18 07:41:33;;;;;;;18.37;15.88;;;;;;;16.90;98.37;98439.59;1724749;80;21377;-57
2021/05/18 07:44:00;;;;;;;17.67;15.85;;;;;;;16.88;98.63;98441.58;1725992;82;21453;-58
2021/05/18 07:46:29;;;;;;;19.10;16.97;;;;;;;16.83;98.79;98443.89;1728453;80;20929;-61
